Time;durP1;ratioP1;P1;durP2;ratioP2;P2;SDS_P1;SDS_P2;PMS_P1;PMS_P2;Temp;Humidity;BMP_temperature;BMP_pressure;BME280_temperature;BME280_humidity;BME280_pressure;Samples;Min_cycle;Max_cycle;Signal;HPM_P1;HPM_P2
2020/12/15 00:03:42;;;;;;;2.53;2.00;;;16.50;68.60;;;;;;10493421;28;20103;-61
2020/12/15 00:08:44;;;;;;;3.00;2.17;;;16.50;68.60;;;;;;10495921;28;20131;-61
2020/12/15 00:13:45;;;;;;;2.53;1.60;;;16.50;68.50;;;;;;10496637;28;20032;-61
2020/12/15 00:18:46;;;;;;;3.92;1.70;;;16.40;68.50;;;;;;10496603;28;20065;-61
2020/12/15 00:23:49;;;;;;;2.88;2.03;;;16.40;68.50;;;;;;10496213;28;20048;-61
2020/12/15 00:28:50;;;;;;;2.08;1.50;;;16.40;68.60;;;;;;10496111;28;20025;-61
2020/12/15 00:33:51;;;;;;;2.92;2.05;;;16.40;68.50;;;;;;10494533;28;20039;-61
2020/12/15 00:38:52;;;;;;;3.55;1.70;;;16.40;69.10;;;;;;10496439;28;20556;-61
2020/12/15 00:43:52;;;;;;;2.85;1.55;;;16.40;68.50;;;;;;10495716;28;20393;-61
2020/12/15 00:48:53;;;;;;;2.30;1.77;;;16.40;68.50;;;;;;10495778;28;20389;-61
2020/12/15 00:53:54;;;;;;;2.17;1.45;;;16.40;68.50;;;;;;10495766;28;20107;-60
2020/12/15 00:58:54;;;;;;;2.83;1.80;;;16.40;68.50;;;;;;10495930;28;20120;-59
2020/12/15 01:03:55;;;;;;;1.98;1.50;;;16.40;68.50;;;;;;10495370;28;20158;-61
2020/12/15 01:08:56;;;;;;;2.58;1.70;;;16.40;68.40;;;;;;10495469;28;20028;-61
2020/12/15 01:13:57;;;;;;;2.65;1.63;;;16.40;68.40;;;;;;10495324;28;20135;-60
2020/12/15 01:18:57;;;;;;;2.90;1.90;;;16.40;68.50;;;;;;10496005;28;20066;-62
2020/12/15 01:23:58;;;;;;;3.35;1.60;;;16.40;68.50;;;;;;10502929;28;20403;-61
2020/12/15 01:28:59;;;;;;;2.60;1.85;;;16.40;68.50;;;;;;10502424;28;20119;-60
2020/12/15 01:33:59;;;;;;;4.00;1.77;;;16.30;68.50;;;;;;10502301;28;20098;-61
2020/12/15 01:39:00;;;;;;;2.40;1.67;;;16.30;68.50;;;;;;10502323;28;20120;-61
2020/12/15 01:44:04;;;;;;;3.40;2.08;;;16.30;68.50;;;;;;10499969;28;20024;-61
2020/12/15 01:49:06;;;;;;;2.60;1.60;;;16.30;68.40;;;;;;10500858;28;20090;-61
2020/12/15 01:54:07;;;;;;;2.88;1.70;;;16.30;68.50;;;;;;10500456;28;20028;-61
2020/12/15 01:59:08;;;;;;;3.38;1.75;;;16.30;68.50;;;;;;10501603;28;20035;-61
2020/12/15 02:04:09;;;;;;;4.40;1.90;;;16.30;68.50;;;;;;10501140;28;20404;-61
2020/12/15 02:09:10;;;;;;;2.92;1.67;;;16.30;68.50;;;;;;10501134;28;20035;-61
2020/12/15 02:14:11;;;;;;;2.47;1.50;;;16.30;68.50;;;;;;10500913;28;20508;-61
2020/12/15 02:19:17;;;;;;;2.63;1.65;;;16.30;68.50;;;;;;10493027;28;20037;-60
2020/12/15 02:24:18;;;;;;;4.03;2.05;;;16.30;70.20;;;;;;10516092;28;20093;-59
2020/12/15 02:29:19;;;;;;;3.17;1.75;;;16.30;72.30;;;;;;10496052;28;20366;-61
2020/12/15 02:34:20;;;;;;;3.15;1.63;;;16.40;72.70;;;;;;10499536;28;20058;-61
2020/12/15 02:39:20;;;;;;;2.47;1.63;;;16.40;72.50;;;;;;10500256;28;20587;-61
2020/12/15 02:44:21;;;;;;;1.60;1.10;;;16.30;72.00;;;;;;10499380;28;20039;-60
2020/12/15 02:49:22;;;;;;;2.25;1.48;;;16.30;71.70;;;;;;10499593;28;20061;-61
2020/12/15 02:54:23;;;;;;;2.60;1.50;;;16.30;71.80;;;;;;10499167;28;20058;-61
2020/12/15 02:59:24;;;;;;;2.70;1.70;;;16.30;71.70;;;;;;10499113;28;20054;-61
2020/12/15 03:04:24;;;;;;;2.03;1.48;;;16.30;72.30;;;;;;10498262;28;20123;-60
2020/12/15 03:09:25;;;;;;;2.65;1.42;;;16.30;71.40;;;;;;10498716;28;20115;-61
2020/12/15 03:14:26;;;;;;;2.42;1.75;;;16.20;71.20;;;;;;10498282;28;20032;-61
2020/12/15 03:19:27;;;;;;;2.40;1.80;;;16.20;71.00;;;;;;10491083;28;20039;-61
2020/12/15 03:24:27;;;;;;;2.30;1.50;;;16.30;71.10;;;;;;10497940;28;20056;-61
2020/12/15 03:29:28;;;;;;;2.10;1.40;;;16.20;70.80;;;;;;10495975;28;20127;-60
2020/12/15 03:34:29;;;;;;;2.55;1.75;;;16.20;70.80;;;;;;10496097;28;20016;-59
2020/12/15 03:39:29;;;;;;;2.28;1.67;;;16.20;70.80;;;;;;10497742;28;20033;-60
2020/12/15 03:44:30;;;;;;;2.05;1.20;;;16.10;70.40;;;;;;10496438;28;20024;-60
2020/12/15 03:49:31;;;;;;;3.28;1.70;;;16.20;70.60;;;;;;10496708;28;20036;-60
2020/12/15 03:54:31;;;;;;;2.13;1.45;;;16.10;70.40;;;;;;10496948;28;20570;-61
2020/12/15 03:59:32;;;;;;;1.98;1.35;;;16.20;70.40;;;;;;10495694;28;20531;-61
2020/12/15 04:04:33;;;;;;;1.98;1.45;;;16.20;70.40;;;;;;10496771;28;20394;-61
2020/12/15 04:09:34;;;;;;;2.33;1.60;;;16.20;70.30;;;;;;10496645;28;20530;-60
2020/12/15 04:14:34;;;;;;;1.50;1.25;;;16.10;70.20;;;;;;10496144;28;20031;-60
2020/12/15 04:19:36;;;;;;;2.55;1.67;;;16.10;70.20;;;;;;10496594;28;20465;-61
2020/12/15 04:24:37;;;;;;;3.70;1.67;;;16.10;70.10;;;;;;10496386;28;20037;-61
2020/12/15 04:29:38;;;;;;;1.75;0.95;;;16.10;70.00;;;;;;10496209;28;20170;-61
2020/12/15 04:34:38;;;;;;;2.65;1.27;;;16.10;70.10;;;;;;10496014;28;20371;-61
2020/12/15 04:39:39;;;;;;;2.50;1.30;;;16.10;69.90;;;;;;10496185;28;20583;-61
2020/12/15 04:44:40;;;;;;;2.53;1.48;;;16.10;69.90;;;;;;10511506;28;20024;-61
2020/12/15 04:50:02;;;;;;;1.73;1.10;;;16.10;69.90;;;;;;10494859;28;20154;-61
2020/12/15 04:55:03;;;;;;;2.42;1.55;;;16.00;69.80;;;;;;10498048;28;20040;-61
2020/12/15 05:00:06;;;;;;;1.70;1.15;;;16.10;69.90;;;;;;10503950;28;20037;-61
2020/12/15 05:05:11;;;;;;;2.08;1.33;;;16.10;69.80;;;;;;10503393;28;20515;-61
2020/12/15 05:10:16;;;;;;;2.08;1.27;;;16.00;69.80;;;;;;10498569;28;20234;-61
2020/12/15 05:15:18;;;;;;;2.28;1.60;;;16.00;69.70;;;;;;10502926;28;20028;-61
2020/12/15 05:20:28;;;;;;;2.33;1.52;;;16.00;69.70;;;;;;10501977;28;20057;-61
2020/12/15 05:25:31;;;;;;;2.10;1.40;;;16.00;70.10;;;;;;10502129;28;20020;-61
2020/12/15 05:30:32;;;;;;;2.35;1.60;;;16.00;69.70;;;;;;10502659;28;20362;-60
2020/12/15 05:35:35;;;;;;;2.28;1.73;;;16.00;69.70;;;;;;10502127;28;20104;-60
2020/12/15 05:40:39;;;;;;;2.95;1.58;;;16.00;69.70;;;;;;10502552;28;20032;-62
2020/12/15 05:45:50;;;;;;;1.70;1.10;;;16.00;69.70;;;;;;10501608;28;20039;-60
2020/12/15 05:50:57;;;;;;;1.75;1.27;;;16.00;69.70;;;;;;10496701;28;20078;-61
2020/12/15 05:55:58;;;;;;;3.08;1.42;;;16.00;69.70;;;;;;10501919;28;20033;-61
2020/12/15 06:01:09;;;;;;;2.00;1.40;;;16.00;69.70;;;;;;10481562;28;20028;-61
2020/12/15 06:06:11;;;;;;;3.40;1.67;;;16.00;69.60;;;;;;10478680;28;20098;-60
2020/12/15 06:11:15;;;;;;;2.55;1.50;;;16.00;70.10;;;;;;10497061;28;20065;-61
2020/12/15 06:16:16;;;;;;;2.50;1.70;;;16.00;70.20;;;;;;10497601;28;20035;-61
2020/12/15 06:21:17;;;;;;;5.63;1.52;;;16.30;69.50;;;;;;10497914;28;20035;-59
2020/12/15 06:26:25;;;;;;;5.03;1.13;;;16.60;68.40;;;;;;10499638;28;20109;-59
2020/12/15 06:31:26;;;;;;;3.70;2.00;;;17.20;67.40;;;;;;10500562;28;20029;-60
2020/12/15 06:36:33;;;;;;;19.33;2.10;;;17.50;66.90;;;;;;10482342;28;20379;-58
2020/12/15 06:41:34;;;;;;;5.88;1.60;;;17.70;66.40;;;;;;10498542;28;20491;-62
2020/12/15 06:46:35;;;;;;;4.95;1.35;;;17.80;66.40;;;;;;10481775;28;20017;-62
2020/12/15 06:51:37;;;;;;;3.80;1.15;;;18.10;65.20;;;;;;10499604;28;20357;-61
2020/12/15 06:56:38;;;;;;;1.83;0.95;;;18.20;64.70;;;;;;10498326;28;20043;-61
2020/12/15 07:01:38;;;;;;;4.03;1.67;;;18.20;64.60;;;;;;10494483;28;20024;-61
2020/12/15 07:06:39;;;;;;;9.05;1.42;;;18.10;64.60;;;;;;10498498;28;20071;-60
2020/12/15 07:11:40;;;;;;;2.72;1.15;;;18.00;64.90;;;;;;10498079;28;20063;-58
2020/12/15 07:16:40;;;;;;;4.43;1.13;;;17.90;65.30;;;;;;10495861;28;20115;-61
2020/12/15 07:21:41;;;;;;;3.45;1.48;;;17.80;65.70;;;;;;10499967;28;20099;-61
2020/12/15 07:26:43;;;;;;;2.85;1.45;;;17.60;66.10;;;;;;10513498;28;20032;-57
2020/12/15 07:31:44;;;;;;;5.57;1.63;;;17.70;66.10;;;;;;10494123;28;20029;-61
2020/12/15 07:36:48;;;;;;;7.18;2.15;;;17.70;66.20;;;;;;10498147;28;20765;-63
2020/12/15 07:42:02;;;;;;;4.28;1.77;;;17.80;65.90;;;;;;10497108;28;20028;-62
2020/12/15 07:47:03;;;;;;;3.90;1.63;;;17.70;65.90;;;;;;10498202;28;20136;-61
2020/12/15 07:52:04;;;;;;;5.90;1.48;;;17.70;65.80;;;;;;10489172;28;20352;-61
2020/12/15 07:57:07;;;;;;;5.60;1.63;;;17.70;65.90;;;;;;10491836;28;20032;-61
2020/12/15 08:02:17;;;;;;;4.72;1.48;;;17.80;65.70;;;;;;10491296;28;20489;-62
2020/12/15 08:07:19;;;;;;;3.83;1.65;;;17.70;65.80;;;;;;10495665;28;20044;-62
2020/12/15 08:12:20;;;;;;;4.68;1.23;;;17.70;65.80;;;;;;10496870;28;20035;-62
2020/12/15 08:17:22;;;;;;;4.72;1.50;;;17.70;65.60;;;;;;10495482;28;20025;-62
2020/12/15 08:22:22;;;;;;;2.17;1.13;;;17.80;65.30;;;;;;10495074;28;20040;-61
2020/12/15 08:27:25;;;;;;;10.63;1.60;;;17.70;65.60;;;;;;10496183;28;20111;-62
2020/12/15 08:32:30;;;;;;;2.22;1.13;;;17.60;65.90;;;;;;10493447;28;20036;-59
2020/12/15 08:37:33;;;;;;;1.33;0.95;;;17.60;66.00;;;;;;10493404;28;20471;-62
2020/12/15 08:42:34;;;;;;;2.40;1.30;;;17.60;65.80;;;;;;10494509;28;20056;-61
2020/12/15 08:47:50;;;;;;;3.40;1.50;;;17.80;65.40;;;;;;10495928;28;20029;-62
2020/12/15 08:52:51;;;;;;;2.83;1.33;;;17.70;65.60;;;;;;10496278;28;20039;-62
2020/12/15 08:58:06;;;;;;;2.58;1.38;;;17.70;65.50;;;;;;10495889;28;20033;-62
2020/12/15 09:03:09;;;;;;;3.83;1.50;;;17.60;65.70;;;;;;10496159;28;20035;-62
2020/12/15 09:08:10;;;;;;;2.90;1.15;;;17.50;65.90;;;;;;10495537;28;20047;-62
2020/12/15 09:13:11;;;;;;;4.75;1.65;;;17.60;65.70;;;;;;10495879;28;20099;-62
2020/12/15 09:18:14;;;;;;;3.67;1.13;;;17.60;65.80;;;;;;10495525;28;20047;-63
2020/12/15 09:23:26;;;;;;;1.75;1.00;;;17.50;66.10;;;;;;10495658;28;20025;-63
2020/12/15 09:28:28;;;;;;;3.00;1.02;;;17.50;66.00;;;;;;10496200;28;20385;-61
2020/12/15 09:33:28;;;;;;;2.33;1.20;;;17.50;65.90;;;;;;10495350;28;20021;-62
2020/12/15 09:38:29;;;;;;;3.40;1.50;;;17.60;65.70;;;;;;10495275;28;20025;-63
2020/12/15 09:43:30;;;;;;;2.30;1.27;;;17.60;65.70;;;;;;10499513;28;20040;-62
2020/12/15 09:48:31;;;;;;;2.28;1.15;;;17.50;65.90;;;;;;10502220;28;20108;-62
2020/12/15 09:53:31;;;;;;;1.95;1.20;;;17.40;66.10;;;;;;10500918;28;20035;-62
2020/12/15 09:58:32;;;;;;;1.70;1.08;;;17.50;65.90;;;;;;10501974;28;20141;-62
2020/12/15 10:03:33;;;;;;;2.58;1.23;;;17.40;65.90;;;;;;10501831;28;20060;-63
2020/12/15 10:08:33;;;;;;;3.35;1.20;;;17.30;66.10;;;;;;10501404;28;20166;-62
2020/12/15 10:13:34;;;;;;;2.78;1.02;;;17.40;66.00;;;;;;10501492;28;20024;-62
2020/12/15 10:18:35;;;;;;;1.50;0.98;;;17.50;65.70;;;;;;10501188;28;20397;-62
2020/12/15 10:23:37;;;;;;;2.13;1.13;;;17.40;65.80;;;;;;10501188;28;20103;-62
2020/12/15 10:28:37;;;;;;;2.90;1.00;;;17.50;65.60;;;;;;10491041;28;20035;-63
2020/12/15 10:33:38;;;;;;;4.38;1.27;;;17.50;65.40;;;;;;10500617;28;20063;-57
2020/12/15 10:38:39;;;;;;;1.83;1.17;;;17.50;65.60;;;;;;10497450;28;20040;-62
2020/12/15 10:43:40;;;;;;;1.88;1.00;;;17.40;66.00;;;;;;10498619;28;20078;-62
2020/12/15 10:48:41;;;;;;;2.28;1.25;;;17.30;66.40;;;;;;10462386;28;20539;-61
2020/12/15 10:53:43;;;;;;;1.67;0.98;;;17.20;66.40;;;;;;10463328;28;20104;-62
2020/12/15 10:58:43;;;;;;;2.80;1.30;;;17.30;66.30;;;;;;10477361;28;20029;-63
2020/12/15 11:03:44;;;;;;;1.83;1.10;;;17.30;66.30;;;;;;10463069;28;20108;-62
2020/12/15 11:08:45;;;;;;;2.25;1.30;;;17.30;66.10;;;;;;10461179;28;20108;-62
2020/12/15 11:13:46;;;;;;;2.28;1.30;;;17.30;66.20;;;;;;10464520;28;20111;-62
2020/12/15 11:18:47;;;;;;;1.60;1.17;;;17.30;66.20;;;;;;10481609;28;20039;-61
2020/12/15 11:23:48;;;;;;;2.42;0.90;;;17.60;65.20;;;;;;10498350;28;20554;-61
2020/12/15 11:28:49;;;;;;;3.10;1.15;;;18.20;63.50;;;;;;10490712;28;20166;-60
2020/12/15 11:33:49;;;;;;;3.17;0.95;;;18.40;62.80;;;;;;10498143;28;20099;-62
2020/12/15 11:38:50;;;;;;;1.65;1.00;;;18.40;62.90;;;;;;10498984;28;20557;-62
2020/12/15 11:43:51;;;;;;;2.30;1.00;;;18.30;63.30;;;;;;10497163;28;20021;-59
2020/12/15 11:48:51;;;;;;;2.17;0.82;;;18.20;63.50;;;;;;10497012;28;20119;-62
2020/12/15 11:53:52;;;;;;;1.60;0.90;;;18.10;63.70;;;;;;10495856;28;20031;-62
2020/12/15 11:58:53;;;;;;;1.77;1.08;;;18.20;63.70;;;;;;10496734;28;20032;-62
2020/12/15 12:03:53;;;;;;;1.92;1.23;;;18.20;63.70;;;;;;10492688;28;20082;-62
2020/12/15 12:08:54;;;;;;;2.03;1.10;;;18.10;64.00;;;;;;10465916;28;20025;-63
2020/12/15 12:13:55;;;;;;;2.15;1.10;;;18.10;63.90;;;;;;10494246;28;20439;-62
2020/12/15 12:18:56;;;;;;;1.85;1.08;;;18.20;63.90;;;;;;10495310;28;20103;-62
2020/12/15 12:23:56;;;;;;;2.20;0.93;;;18.10;63.80;;;;;;10496647;28;20123;-62
2020/12/15 12:28:59;;;;;;;2.17;0.90;;;18.10;63.90;;;;;;10490906;28;20396;-62
2020/12/15 12:33:59;;;;;;;1.90;1.10;;;18.10;64.10;;;;;;10497429;28;20020;-62
2020/12/15 12:39:01;;;;;;;2.08;1.15;;;18.10;64.20;;;;;;10511611;28;20094;-62
2020/12/15 12:44:02;;;;;;;3.45;1.17;;;18.10;64.10;;;;;;10466901;28;20076;-62
2020/12/15 12:49:02;;;;;;;2.38;1.40;;;18.10;65.00;;;;;;10482992;28;20043;-61
2020/12/15 12:54:03;;;;;;;1.85;0.90;;;18.10;65.40;;;;;;10459810;28;20064;-61
2020/12/15 12:59:04;;;;;;;1.88;1.35;;;18.10;65.30;;;;;;10492448;28;20564;-62
2020/12/15 13:04:05;;;;;;;2.50;1.30;;;18.00;65.40;;;;;;10494949;28;20057;-59
2020/12/15 13:09:06;;;;;;;2.28;1.13;;;18.00;66.10;;;;;;10492235;28;20518;-62
2020/12/15 13:14:06;;;;;;;3.13;1.60;;;18.10;65.10;;;;;;10495049;28;20037;-61
2020/12/15 13:19:08;;;;;;;5.30;1.33;;;18.10;65.90;;;;;;10503749;28;20033;-63
2020/12/15 13:24:09;;;;;;;3.92;1.17;;;18.10;65.30;;;;;;10502015;28;20481;-62
2020/12/15 13:29:09;;;;;;;4.00;1.30;;;18.10;65.90;;;;;;10470457;28;20029;-62
2020/12/15 13:34:10;;;;;;;3.40;1.20;;;18.20;65.70;;;;;;10467002;28;20103;-62
2020/12/15 13:39:12;;;;;;;10.43;1.63;;;18.20;65.90;;;;;;10469077;28;20115;-61
2020/12/15 13:44:12;;;;;;;2.72;1.17;;;18.10;66.20;;;;;;10474189;28;20021;-61
2020/12/15 13:49:13;;;;;;;3.65;1.38;;;18.10;66.60;;;;;;10485196;28;20047;-59
2020/12/15 13:54:14;;;;;;;5.97;1.40;;;18.20;66.70;;;;;;10489792;28;20389;-59
2020/12/15 13:59:15;;;;;;;2.47;1.15;;;18.30;66.50;;;;;;10501639;28;20553;-61
2020/12/15 14:04:16;;;;;;;3.67;1.40;;;18.30;66.30;;;;;;10485879;28;20032;-59
2020/12/15 14:09:17;;;;;;;6.38;1.42;;;18.30;66.50;;;;;;10502587;28;20414;-60
2020/12/15 14:14:18;;;;;;;3.00;1.08;;;18.20;66.70;;;;;;10501183;28;20033;-60
2020/12/15 14:19:19;;;;;;;2.63;1.02;;;18.10;67.20;;;;;;10492707;28;20024;-59
2020/12/15 14:24:21;;;;;;;4.50;1.38;;;18.20;66.50;;;;;;10468957;28;20115;-60
2020/12/15 14:29:22;;;;;;;2.90;1.13;;;18.20;67.00;;;;;;10467499;28;20175;-60
2020/12/15 14:34:23;;;;;;;2.90;1.02;;;18.10;67.10;;;;;;10498971;28;20484;-60
2020/12/15 14:39:23;;;;;;;4.88;1.48;;;18.10;67.20;;;;;;10495474;28;20031;-61
2020/12/15 14:44:24;;;;;;;2.53;1.48;;;18.10;67.00;;;;;;10499945;28;20036;-61
2020/12/15 14:49:25;;;;;;;5.90;1.70;;;18.00;67.00;;;;;;10498437;28;20028;-63
2020/12/15 14:54:25;;;;;;;5.35;1.45;;;18.00;67.10;;;;;;10489814;28;20364;-64
2020/12/15 14:59:26;;;;;;;7.60;1.92;;;18.00;66.80;;;;;;10465057;28;20017;-62
2020/12/15 15:04:29;;;;;;;7.75;1.58;;;18.00;67.10;;;;;;10482961;28;20124;-63
2020/12/15 15:09:31;;;;;;;7.55;1.80;;;17.90;67.40;;;;;;10498824;28;20024;-61
2020/12/15 15:14:32;;;;;;;4.15;1.70;;;17.90;67.50;;;;;;10499177;28;20028;-61
2020/12/15 15:19:32;;;;;;;8.20;2.47;;;17.90;67.20;;;;;;10464552;28;20123;-62
2020/12/15 15:24:33;;;;;;;5.22;1.60;;;17.90;66.90;;;;;;10487642;28;20571;-64
2020/12/15 15:29:35;;;;;;;5.93;1.85;;;18.00;66.60;;;;;;10492554;28;20485;-60
2020/12/15 15:34:35;;;;;;;8.20;2.33;;;18.10;66.60;;;;;;10497881;28;20066;-63
2020/12/15 15:39:36;;;;;;;7.65;2.60;;;18.20;66.90;;;;;;10505604;28;20026;-61
2020/12/15 15:44:37;;;;;;;9.23;2.33;;;18.10;67.30;;;;;;10487442;28;20028;-62
2020/12/15 15:49:38;;;;;;;7.95;3.33;;;18.10;67.40;;;;;;10474911;28;20049;-63
2020/12/15 15:54:39;;;;;;;7.15;2.30;;;18.00;67.50;;;;;;10461246;28;20053;-64
2020/12/15 15:59:40;;;;;;;11.00;2.22;;;17.90;67.80;;;;;;10490504;28;20119;-61
2020/12/15 16:04:40;;;;;;;13.77;3.03;;;17.80;68.10;;;;;;10496634;28;20079;-62
2020/12/15 16:09:41;;;;;;;11.82;3.08;;;17.70;68.70;;;;;;10495641;28;20056;-62
2020/12/15 16:14:42;;;;;;;11.93;3.95;;;17.70;68.90;;;;;;10496935;28;20028;-63
2020/12/15 16:19:43;;;;;;;15.20;4.05;;;17.70;68.90;;;;;;10464494;28;20048;-64
2020/12/15 16:24:44;;;;;;;18.30;3.55;;;17.80;68.30;;;;;;10490791;28;20473;-64
2020/12/15 16:29:45;;;;;;;11.18;3.25;;;17.90;68.00;;;;;;10496382;28;20111;-64
2020/12/15 16:34:45;;;;;;;7.78;3.17;;;17.90;67.80;;;;;;10495018;28;20388;-64
2020/12/15 16:39:46;;;;;;;9.88;2.65;;;17.90;67.80;;;;;;10477590;28;20025;-63
2020/12/15 16:44:47;;;;;;;9.18;3.03;;;18.00;67.70;;;;;;10491801;28;20465;-63
2020/12/15 16:49:47;;;;;;;11.73;3.40;;;18.00;67.80;;;;;;10496566;28;20017;-64
2020/12/15 16:54:48;;;;;;;6.72;2.90;;;18.00;67.70;;;;;;10504447;28;20038;-64
2020/12/15 16:59:49;;;;;;;9.23;3.45;;;18.00;67.70;;;;;;10504314;28;20029;-64
2020/12/15 17:04:51;;;;;;;9.15;3.15;;;17.90;67.60;;;;;;10503783;28;20067;-62
2020/12/15 17:09:52;;;;;;;16.98;3.75;;;17.90;67.70;;;;;;10504771;28;20029;-61
2020/12/15 17:14:52;;;;;;;12.15;2.85;;;18.00;67.90;;;;;;10502906;28;20021;-64
2020/12/15 17:19:53;;;;;;;12.38;4.40;;;18.30;67.10;;;;;;10503908;28;20640;-61
2020/12/15 17:24:54;;;;;;;14.30;4.60;;;18.50;67.40;;;;;;10489528;28;20438;-62
2020/12/15 17:29:54;;;;;;;12.07;4.32;;;18.40;68.50;;;;;;10503245;28;20160;-63
2020/12/15 17:34:57;;;;;;;9.70;4.10;;;18.20;69.60;;;;;;10503075;28;20457;-64
2020/12/15 17:39:57;;;;;;;8.77;3.80;;;18.20;70.10;;;;;;10501941;28;20036;-60
2020/12/15 17:44:58;;;;;;;12.88;3.67;;;18.10;70.50;;;;;;10502619;28;20439;-64
2020/12/15 17:49:59;;;;;;;13.35;4.28;;;18.00;70.40;;;;;;10502434;28;20040;-59
2020/12/15 17:55:00;;;;;;;10.43;3.65;;;17.90;71.00;;;;;;10493545;28;20031;-60
2020/12/15 18:00:01;;;;;;;6.90;3.63;;;17.90;71.10;;;;;;10501193;28;20107;-60
2020/12/15 18:05:02;;;;;;;10.23;4.32;;;17.90;71.00;;;;;;10499275;28;20056;-62
2020/12/15 18:10:03;;;;;;;10.48;3.67;;;17.80;70.80;;;;;;10479020;28;20074;-60
2020/12/15 18:15:04;;;;;;;8.90;3.90;;;17.80;70.60;;;;;;10501250;28;20130;-60
2020/12/15 18:20:05;;;;;;;7.63;3.70;;;17.80;70.30;;;;;;10485402;28;20489;-62
2020/12/15 18:25:05;;;;;;;12.70;3.55;;;17.80;70.10;;;;;;10485985;28;20102;-61
2020/12/15 18:30:09;;;;;;;13.32;4.05;;;17.80;70.00;;;;;;10494652;28;20025;-61
2020/12/15 18:35:10;;;;;;;11.10;3.38;;;17.80;70.00;;;;;;10479140;28;20028;-61
2020/12/15 18:40:13;;;;;;;10.13;3.78;;;17.80;70.00;;;;;;10467489;28;20028;-61
2020/12/15 18:45:14;;;;;;;9.35;3.33;;;17.80;69.90;;;;;;10484418;28;20573;-61
2020/12/15 18:50:15;;;;;;;10.63;3.88;;;17.80;69.50;;;;;;10488591;28;20025;-63
2020/12/15 18:55:15;;;;;;;9.32;3.63;;;17.90;69.40;;;;;;10494888;28;20029;-64
2020/12/15 19:00:16;;;;;;;12.65;4.20;;;17.80;69.60;;;;;;10488021;28;20037;-62
2020/12/15 19:05:17;;;;;;;9.32;3.25;;;17.90;69.30;;;;;;10481171;28;20462;-63
2020/12/15 19:10:18;;;;;;;9.68;3.63;;;18.00;69.10;;;;;;10480862;28;20040;-62
2020/12/15 19:15:19;;;;;;;10.82;4.50;;;18.00;69.60;;;;;;10479542;28;20137;-60
2020/12/15 19:20:20;;;;;;;9.25;3.30;;;17.90;69.20;;;;;;10462327;28;20104;-59
2020/12/15 19:25:20;;;;;;;6.07;3.38;;;18.00;69.10;;;;;;10465149;28;20067;-60
2020/12/15 19:30:23;;;;;;;8.13;3.60;;;18.00;69.10;;;;;;10472672;28;20033;-62
2020/12/15 19:35:23;;;;;;;7.82;3.47;;;18.00;69.30;;;;;;10490226;28;20070;-63
2020/12/15 19:40:24;;;;;;;6.10;3.08;;;18.00;69.20;;;;;;10513316;28;20162;-62
2020/12/15 19:45:25;;;;;;;7.28;3.70;;;17.90;69.20;;;;;;10497793;28;20116;-62
2020/12/15 19:50:26;;;;;;;6.95;3.45;;;18.00;69.30;;;;;;10497497;28;20448;-62
2020/12/15 19:55:27;;;;;;;6.40;3.85;;;18.00;69.20;;;;;;10497099;28;20521;-62
2020/12/15 20:00:28;;;;;;;8.65;4.00;;;18.00;69.20;;;;;;10490016;28;20028;-62
2020/12/15 20:05:28;;;;;;;6.28;3.60;;;18.00;69.40;;;;;;10495368;28;20388;-60
2020/12/15 20:10:29;;;;;;;5.90;3.25;;;18.00;69.20;;;;;;10494917;28;20029;-60
2020/12/15 20:15:30;;;;;;;6.78;3.83;;;18.00;69.90;;;;;;10496506;28;20457;-59
2020/12/15 20:20:32;;;;;;;10.90;3.83;;;17.90;69.70;;;;;;10477539;28;20028;-61
2020/12/15 20:25:33;;;;;;;8.10;4.20;;;17.80;70.00;;;;;;10482194;28;20033;-62
2020/12/15 20:30:34;;;;;;;6.10;3.13;;;17.70;70.20;;;;;;10498867;28;20454;-62
2020/12/15 20:35:35;;;;;;;7.43;3.13;;;17.60;70.40;;;;;;10493152;28;20077;-60
2020/12/15 20:40:35;;;;;;;11.80;4.50;;;17.50;70.50;;;;;;10487777;28;20024;-60
2020/12/15 20:45:36;;;;;;;5.68;3.25;;;17.50;70.60;;;;;;10488057;28;20108;-61
2020/12/15 20:50:37;;;;;;;6.85;3.38;;;17.40;70.70;;;;;;10491026;28;20115;-61
2020/12/15 20:55:39;;;;;;;5.47;3.28;;;17.40;70.60;;;;;;10492807;28;20421;-61
2020/12/15 21:00:40;;;;;;;6.70;3.20;;;17.30;70.60;;;;;;10494011;28;20077;-62
2020/12/15 21:05:41;;;;;;;5.95;2.70;;;17.30;70.70;;;;;;10493728;28;20461;-61
2020/12/15 21:10:41;;;;;;;8.05;3.28;;;17.30;70.80;;;;;;10492204;28;20036;-61
2020/12/15 21:15:43;;;;;;;5.45;3.40;;;17.20;70.80;;;;;;10487092;28;20055;-61
2020/12/15 21:20:45;;;;;;;4.90;3.00;;;17.20;70.80;;;;;;10500158;28;20032;-60
2020/12/15 21:25:46;;;;;;;5.22;3.08;;;17.10;70.80;;;;;;10487958;28;20034;-61
2020/12/15 21:30:47;;;;;;;7.40;3.30;;;17.10;70.70;;;;;;10493296;28;20035;-61
2020/12/15 21:35:48;;;;;;;6.90;3.60;;;17.10;71.00;;;;;;10472773;28;20021;-62
2020/12/15 21:40:48;;;;;;;6.55;3.53;;;17.00;70.80;;;;;;10497925;28;20024;-62
2020/12/15 21:45:49;;;;;;;5.22;3.15;;;17.00;70.80;;;;;;10500914;28;20205;-59
2020/12/15 21:50:50;;;;;;;5.80;3.63;;;17.00;70.80;;;;;;10496099;28;20099;-62
2020/12/15 21:55:51;;;;;;;5.35;3.33;;;16.90;70.70;;;;;;10494899;28;20546;-62
2020/12/15 22:00:51;;;;;;;4.05;3.63;;;16.90;70.70;;;;;;10498016;28;20024;-61
2020/12/15 22:05:52;;;;;;;4.22;3.42;;;16.90;70.70;;;;;;10495186;28;20492;-62
2020/12/15 22:10:53;;;;;;;4.35;2.92;;;16.90;70.70;;;;;;10495515;28;20032;-62
2020/12/15 22:15:53;;;;;;;5.00;3.15;;;16.80;70.60;;;;;;10497987;28;20448;-60
2020/12/15 22:20:54;;;;;;;5.18;3.45;;;16.80;70.60;;;;;;10497846;28;20127;-61
2020/12/15 22:25:55;;;;;;;9.43;3.40;;;16.80;70.60;;;;;;10496721;28;20067;-62
2020/12/15 22:30:55;;;;;;;4.70;3.45;;;16.80;70.60;;;;;;10498805;28;20059;-62
2020/12/15 22:35:56;;;;;;;4.72;3.15;;;16.80;70.60;;;;;;10498314;28;20122;-62
2020/12/15 22:40:58;;;;;;;4.20;3.35;;;16.70;70.50;;;;;;10494532;28;20032;-62
2020/12/15 22:45:58;;;;;;;4.65;3.47;;;16.70;70.50;;;;;;10495515;28;20082;-61
2020/12/15 22:50:59;;;;;;;4.10;3.05;;;16.70;70.50;;;;;;10494611;28;20078;-61
2020/12/15 22:56:00;;;;;;;4.72;3.58;;;16.70;70.40;;;;;;10493707;28;20024;-61
2020/12/15 23:01:00;;;;;;;6.45;3.88;;;16.70;70.40;;;;;;10497328;28;20087;-62
2020/12/15 23:06:01;;;;;;;4.47;3.00;;;16.70;70.30;;;;;;10493187;28;20055;-61
2020/12/15 23:11:02;;;;;;;6.30;3.78;;;16.70;70.30;;;;;;10494693;28;20035;-61
2020/12/15 23:16:03;;;;;;;3.90;3.10;;;16.70;70.30;;;;;;10496976;28;20077;-62
2020/12/15 23:21:04;;;;;;;4.18;3.60;;;16.70;70.30;;;;;;10490282;28;20027;-62
2020/12/15 23:26:04;;;;;;;3.67;3.10;;;16.60;70.20;;;;;;10494863;28;20032;-60
2020/12/15 23:31:05;;;;;;;4.82;3.50;;;16.70;70.30;;;;;;10496644;28;20194;-59
2020/12/15 23:36:06;;;;;;;4.50;3.53;;;16.60;70.20;;;;;;10496493;28;20016;-59
2020/12/15 23:41:08;;;;;;;6.18;3.22;;;16.60;70.20;;;;;;10494680;28;20035;-59
2020/12/15 23:46:12;;;;;;;4.13;3.00;;;16.60;70.20;;;;;;10494323;28;20073;-59
2020/12/15 23:51:13;;;;;;;4.75;3.78;;;16.60;70.30;;;;;;10491597;28;20032;-60
2020/12/15 23:56:13;;;;;;;4.50;3.25;;;16.60;70.20;;;;;;10477630;28;20097;-60
